Las Vegas, NV (89115)

2:56 PM PST on February 21, 2017 (GMT -0800)
The Weather Doghouse | | Change Station

Elev 2073 ft 36.26 °N, 115.15 °W | Updated 55 seconds ago

Clear
Clear
69.4 °F
Feels Like 69.4 °F
N
16.0
Wind Variable Wind from SE

Today
High -- | Low -- °F
--% Chance of Precip.
Yesterday
High -- | Low -- °F
Precip. -- in
Pressure 30.11 in
Visibility 10.0 miles
Clouds Clear
Dew Point 44 °F
Humidity 40%
Rainfall 0.00 in
Snow Depth Not available.
6:20 AM 5:27 PM
Waning Crescent, 22% visible
SPECI KLSV 212238Z AUTO 15012G22KT 10SM CLR 20/07 A3011 RMK AO2 WSHFT 29
Pressure 30.11 in
Visibility 10.0 miles
Clouds Clear
Dew Point 44 °F
Humidity 40%
Rainfall 0.00 in
Snow Depth Not available.
6:20 AM 5:27 PM
Waning Crescent, 22% visible
SPECI KLSV 212238Z AUTO 15012G22KT 10SM CLR 20/07 A3011 RMK AO2 WSHFT 29

Get Your Daily Forecast Email!

Thanks for signing up!

Be on the lookout for a verification email in your inbox.

You'll start receiving the daily forecast at 8 AM.

×

10-Day Weather Forecast

Almanac

Astronomy

Feb. 21, 2017 Rise Set
Actual Time
Civil Twilight
Nautical Twilight
Astronomical Twilight
Moon
Length of Visible Light
Length of Day
Tomorrow will be .
, % of the Moon is Illuminated

Today's Extremes

State Highs State Lows

Community

WunderPhotos

Upload Photos

1,962,540 photos uploaded!

WunderBlog® & News

Nearby

Air Quality

  Air Quality AQ Index Pollutant
Not available.

Snow Depth

Station Depth Elevation

Earthquake Activity

City Distance Mag. Time & Date
Minimum magnitude displayed is 2.5.

Coastal Water Temperatures

Place Temperature

Stations

Nearby Weather Stations

Station Location Temp. Windchill Dew Point Humidity Wind Precip. Elev Updated Type
                   

Watches & Warnings

There are currently no watches in effect.